createdAt,value
2019-04-25T00:01:14.217Z,99428.29
2019-04-25T00:03:43.692Z,99433.12
2019-04-25T00:06:13.375Z,99442.28
2019-04-25T00:08:43.052Z,99440.56
2019-04-25T00:11:12.304Z,99429.75
2019-04-25T00:13:41.936Z,99432.31
2019-04-25T00:16:11.600Z,99442.97
2019-04-25T00:18:41.936Z,99442.19
2019-04-25T00:21:12.261Z,99436.41
2019-04-25T00:23:42.966Z,99440.18
2019-04-25T00:26:26.022Z,99442.09
2019-04-25T00:28:54.879Z,99426.94
2019-04-25T00:31:25.926Z,99435.69
2019-04-25T00:33:53.568Z,99435.43
2019-04-25T00:36:22.272Z,99435.99
2019-04-25T00:38:52.326Z,99436.93
2019-04-25T00:41:21.363Z,99446.94
2019-04-25T00:43:51.408Z,99449.70
2019-04-25T00:46:20.216Z,99450.48
2019-04-25T00:48:48.663Z,99447.73
2019-04-25T00:51:17.600Z,99442.48
2019-04-25T00:53:46.142Z,99450.09
2019-04-25T00:56:14.843Z,99441.04
2019-04-25T00:58:57.029Z,99454.98
2019-04-25T01:01:31.699Z,99451.06
2019-04-25T01:04:00.245Z,99454.69
2019-04-25T01:06:28.756Z,99465.73
2019-04-25T01:08:57.273Z,99462.22
2019-04-25T01:11:25.861Z,99463.75
2019-04-25T01:13:54.464Z,99473.73
2019-04-25T01:16:22.862Z,99475.98
2019-04-25T01:18:51.307Z,99476.29
2019-04-25T01:21:19.856Z,99471.86
2019-04-25T01:23:48.369Z,99474.86
2019-04-25T01:26:16.985Z,99466.51
2019-04-25T01:28:46.190Z,99472.61
2019-04-25T01:31:16.804Z,99468.13
2019-04-25T01:33:46.656Z,99473.46
2019-04-25T01:36:20.050Z,99475.30
2019-04-25T01:38:59.060Z,99476.30
2019-04-25T01:41:29.266Z,99479.52
2019-04-25T01:44:04.408Z,99486.06
2019-04-25T01:46:34.192Z,99475.34
2019-04-25T01:49:04.228Z,99479.91
2019-04-25T01:51:33.921Z,99475.09
2019-04-25T01:54:03.989Z,99479.89
2019-04-25T01:56:33.296Z,99479.92
2019-04-25T01:59:01.871Z,99482.12
2019-04-25T02:01:30.973Z,99487.73
2019-04-25T02:03:59.497Z,99490.13
2019-04-25T02:06:28.148Z,99488.05
2019-04-25T02:08:57.220Z,99494.26
2019-04-25T02:11:43.843Z,99498.17
2019-04-25T02:14:13.714Z,99496.30
2019-04-25T02:16:43.963Z,99504.57
2019-04-25T02:19:14.394Z,99504.73
2019-04-25T02:21:43.487Z,99504.42
2019-04-25T02:24:13.603Z,99505.99
2019-04-25T02:26:43.805Z,99505.99
2019-04-25T02:29:13.684Z,99499.38
2019-04-25T02:31:44.773Z,99510.99
2019-04-25T02:34:17.544Z,99513.53
2019-04-25T02:36:44.334Z,99511.59
2019-04-25T02:39:17.964Z,99521.41
2019-04-25T02:41:46.656Z,99525.95
2019-04-25T02:44:15.294Z,99525.68
2019-04-25T02:46:57.582Z,99531.02
2019-04-25T02:49:36.890Z,99541.14
2019-04-25T02:52:11.079Z,99530.66
2019-04-25T02:54:37.326Z,99526.50
2019-04-25T02:57:08.038Z,99537.63
2019-04-25T02:59:36.951Z,99526.19
2019-04-25T03:02:08.734Z,99529.42
2019-04-25T03:04:37.099Z,99515.06
2019-04-25T03:07:08.124Z,99522.82
2019-04-25T03:09:36.081Z,99525.51
2019-04-25T03:12:06.495Z,99528.25
2019-04-25T03:14:35.419Z,99521.23
2019-04-25T03:17:05.231Z,99520.19
2019-04-25T03:19:39.234Z,99519.72
2019-04-25T03:22:20.936Z,99513.94
2019-04-25T03:24:49.447Z,99521.86
2019-04-25T03:27:17.888Z,99528.70
2019-04-25T03:29:46.364Z,99526.61
2019-04-25T03:32:19.647Z,99528.47
2019-04-25T03:34:45.057Z,99529.66
2019-04-25T03:37:13.874Z,99537.13
2019-04-25T03:39:43.638Z,99538.00
2019-04-25T03:42:14.029Z,99528.23
2019-04-25T03:44:43.838Z,99542.28
2019-04-25T03:47:13.561Z,99553.13
2019-04-25T03:49:43.459Z,99542.09
2019-04-25T03:52:14.200Z,99540.44
2019-04-25T03:54:43.399Z,99546.55
2019-04-25T03:57:14.342Z,99555.08
2019-04-25T03:59:43.697Z,99556.53
2019-04-25T04:02:13.536Z,99558.94
2019-04-25T04:04:43.530Z,99560.41
2019-04-25T04:07:12.768Z,99566.53
2019-04-25T04:09:43.519Z,99562.01
2019-04-25T04:12:12.354Z,99568.89
2019-04-25T04:14:40.869Z,99559.00
2019-04-25T04:17:28.775Z,99565.75
2019-04-25T04:20:01.509Z,99582.19
2019-04-25T04:22:40.202Z,99579.00
2019-04-25T04:25:10.464Z,99571.33
2019-04-25T04:27:38.918Z,99580.33
2019-04-25T04:30:10.204Z,99600.74
2019-04-25T04:32:38.760Z,99605.19
2019-04-25T04:35:07.459Z,99599.10
2019-04-25T04:37:35.912Z,99608.90
2019-04-25T04:40:07.905Z,99607.63
2019-04-25T04:42:36.526Z,99607.14
2019-04-25T04:45:05.909Z,99617.41
2019-04-25T04:47:34.913Z,99613.39
2019-04-25T04:50:03.922Z,99612.36
2019-04-25T04:52:33.989Z,99593.90
2019-04-25T04:55:06.395Z,99602.77
2019-04-25T04:57:35.970Z,99599.91
2019-04-25T05:00:03.912Z,99605.84
2019-04-25T05:02:37.288Z,99606.40
2019-04-25T05:05:15.885Z,99620.50
2019-04-25T05:07:58.534Z,99612.23
2019-04-25T05:10:27.067Z,99609.17
2019-04-25T05:12:55.583Z,99599.63
2019-04-25T05:15:24.820Z,99592.94
2019-04-25T05:17:54.253Z,99574.75
2019-04-25T05:20:24.162Z,99572.08
2019-04-25T05:22:55.001Z,99551.17
2019-04-25T05:25:24.743Z,99536.78
2019-04-25T05:28:02.127Z,99521.42
2019-04-25T05:30:26.579Z,99516.70
2019-04-25T05:32:55.144Z,99535.92
2019-04-25T05:35:24.421Z,99543.14
2019-04-25T05:37:53.925Z,99563.55
2019-04-25T05:40:24.098Z,99575.61
2019-04-25T05:43:03.400Z,99584.46
2019-04-25T05:45:34.049Z,99596.03
2019-04-25T05:48:05.757Z,99609.59
2019-04-25T05:50:33.891Z,99609.16
2019-04-25T05:53:04.174Z,99609.27
2019-04-25T05:55:34.154Z,99603.30
2019-04-25T05:58:03.847Z,99612.16
2019-04-25T06:00:34.110Z,99607.33
2019-04-25T06:03:03.575Z,99615.53
2019-04-25T06:05:33.518Z,99624.62
2019-04-25T06:08:04.092Z,99634.35
2019-04-25T06:10:36.927Z,99634.98
2019-04-25T06:13:13.803Z,99643.61
2019-04-25T06:15:44.115Z,99643.88
2019-04-25T06:18:14.477Z,99650.11
2019-04-25T06:20:44.308Z,99649.09
2019-04-25T06:23:24.567Z,99646.53
2019-04-25T06:25:54.251Z,99645.80
2019-04-25T06:28:24.875Z,99662.52
2019-04-25T06:30:54.106Z,99658.13
2019-04-25T06:33:24.549Z,99666.98
2019-04-25T06:35:52.895Z,99662.70
2019-04-25T06:38:24.885Z,99662.70
2019-04-25T06:40:51.675Z,99659.52
2019-04-25T06:43:20.195Z,99662.52
2019-04-25T06:45:50.394Z,99658.22
2019-04-25T06:48:21.217Z,99661.84
2019-04-25T06:50:49.842Z,99654.43
2019-04-25T06:53:18.520Z,99658.08
2019-04-25T06:55:47.089Z,99669.34
2019-04-25T06:58:15.569Z,99668.46
2019-04-25T07:00:57.482Z,99662.00
2019-04-25T07:03:15.617Z,99652.55
2019-04-25T07:05:44.177Z,99660.98
2019-04-25T07:08:13.292Z,99661.83
2019-04-25T07:10:41.877Z,99657.67
2019-04-25T07:13:10.402Z,99661.46
2019-04-25T07:15:39.029Z,99662.88
2019-04-25T07:18:07.477Z,99656.89
2019-04-25T07:20:36.070Z,99653.59
2019-04-25T07:23:05.366Z,99649.11
2019-04-25T07:25:36.641Z,99652.13
2019-04-25T07:28:27.537Z,99660.62
2019-04-25T07:31:04.538Z,99657.55
2019-04-25T07:33:43.405Z,99656.41
2019-04-25T07:36:11.871Z,99657.43
2019-04-25T07:38:40.398Z,99667.89
2019-04-25T07:41:10.575Z,99667.43
2019-04-25T07:43:39.002Z,99657.82
2019-04-25T07:46:07.799Z,99658.05
2019-04-25T07:48:37.334Z,99668.54
2019-04-25T07:51:06.778Z,99667.56
2019-04-25T07:53:36.113Z,99669.33
2019-04-25T07:56:05.131Z,99670.88
2019-04-25T07:58:49.614Z,99665.44
2019-04-25T08:01:11.836Z,99668.06
2019-04-25T08:03:40.303Z,99665.83
2019-04-25T08:06:08.828Z,99675.68
2019-04-25T08:08:38.145Z,99681.45
2019-04-25T08:11:09.799Z,99661.40
2019-04-25T08:13:40.192Z,99655.21
2019-04-25T08:16:19.924Z,99649.58
2019-04-25T08:18:50.176Z,99641.50
2019-04-25T08:21:18.901Z,99644.45
2019-04-25T08:23:48.195Z,99631.25
2019-04-25T08:26:16.716Z,99633.78
2019-04-25T08:28:54.443Z,99629.58
2019-04-25T08:31:15.456Z,99633.02
2019-04-25T08:33:46.532Z,99643.55
2019-04-25T08:36:14.285Z,99643.27
2019-04-25T08:38:44.539Z,99635.84
2019-04-25T08:41:14.040Z,99628.81
2019-04-25T08:43:43.653Z,99625.98
2019-04-25T08:46:13.976Z,99616.11
2019-04-25T08:49:02.175Z,99615.94
2019-04-25T08:51:34.804Z,99614.18
2019-04-25T08:54:04.327Z,99618.23
2019-04-25T08:56:35.519Z,99627.80
2019-04-25T08:59:34.159Z,99639.26
2019-04-25T09:02:01.083Z,99633.25
2019-04-25T09:04:35.759Z,99632.72
2019-04-25T09:07:05.472Z,99628.13
2019-04-25T09:09:35.428Z,99627.53
2019-04-25T09:12:04.554Z,99633.28
2019-04-25T09:14:35.225Z,99630.99
2019-04-25T09:17:03.315Z,99619.59
2019-04-25T09:19:31.783Z,99612.09
2019-04-25T09:22:00.296Z,99603.20
2019-04-25T09:24:28.746Z,99595.66
2019-04-25T09:26:57.478Z,99589.87
2019-04-25T09:29:25.926Z,99588.26
2019-04-25T09:31:54.377Z,99584.81
2019-04-25T09:34:23.795Z,99581.72
2019-04-25T09:36:53.654Z,99581.89
2019-04-25T09:39:23.952Z,99578.34
2019-04-25T09:41:53.516Z,99575.45
2019-04-25T09:44:32.701Z,99581.68
2019-04-25T09:47:01.228Z,99574.48
2019-04-25T09:49:31.316Z,99564.31
2019-04-25T09:52:03.262Z,99560.97
2019-04-25T09:54:43.803Z,99546.05
2019-04-25T09:57:33.439Z,99545.53
2019-04-25T10:00:03.621Z,99535.52
2019-04-25T10:02:32.463Z,99516.92
2019-04-25T10:05:00.883Z,99521.08
2019-04-25T10:07:29.594Z,99525.59
2019-04-25T10:09:58.221Z,99534.17
2019-04-25T10:12:26.745Z,99538.27
2019-04-25T10:15:15.030Z,99541.45
2019-04-25T10:17:44.986Z,99517.03
2019-04-25T10:20:15.667Z,99509.45
2019-04-25T10:22:45.419Z,99500.92
2019-04-25T10:25:14.823Z,99499.42
2019-04-25T10:27:46.474Z,99496.00
2019-04-25T10:30:19.635Z,99478.59
2019-04-25T10:32:46.036Z,99474.72
2019-04-25T10:35:15.003Z,99456.87
2019-04-25T10:37:45.208Z,99452.73
2019-04-25T10:40:15.264Z,99470.37
2019-04-25T10:42:47.677Z,99464.75
2019-04-25T10:45:23.384Z,99451.84
2019-04-25T10:47:46.721Z,99451.95
2019-04-25T10:50:15.920Z,99446.58
2019-04-25T10:52:46.170Z,99446.95
2019-04-25T10:55:15.175Z,99453.92
2019-04-25T10:57:45.283Z,99434.59
2019-04-25T11:00:44.845Z,99448.92
2019-04-25T11:03:14.583Z,99433.47
2019-04-25T11:05:43.100Z,99434.02
2019-04-25T11:08:11.664Z,99427.61
2019-04-25T11:10:40.830Z,99426.30
2019-04-25T11:13:09.295Z,99442.58
2019-04-25T11:15:39.224Z,99434.91
2019-04-25T11:18:07.862Z,99436.26
2019-04-25T11:20:39.051Z,99433.86
2019-04-25T11:23:07.998Z,99432.44
2019-04-25T11:25:36.596Z,99438.43
2019-04-25T11:28:08.127Z,99426.77
2019-04-25T11:30:36.715Z,99422.91
2019-04-25T11:33:05.599Z,99433.78
2019-04-25T11:35:34.344Z,99427.25
2019-04-25T11:38:05.580Z,99431.42
2019-04-25T11:40:38.606Z,99438.14
2019-04-25T11:43:07.312Z,99436.99
2019-04-25T11:45:38.271Z,99417.66
2019-04-25T11:48:06.993Z,99418.56
2019-04-25T11:50:37.002Z,99420.47
2019-04-25T11:53:05.744Z,99413.50
2019-04-25T11:55:34.543Z,99400.80
2019-04-25T11:58:03.708Z,99393.42
2019-04-25T12:00:33.771Z,99390.74
2019-04-25T12:03:03.660Z,99391.22
2019-04-25T12:05:32.277Z,99395.38
2019-04-25T12:08:00.823Z,99397.20
2019-04-25T12:10:30.122Z,99399.66
2019-04-25T12:12:58.576Z,99386.53
2019-04-25T12:15:27.212Z,99389.04
2019-04-25T12:17:55.940Z,99403.86
2019-04-25T12:20:24.552Z,99415.57
2019-04-25T12:23:04.184Z,99399.41
2019-04-25T12:25:23.766Z,99378.72
2019-04-25T12:27:53.805Z,99365.08
2019-04-25T12:30:36.763Z,99350.41
2019-04-25T12:32:53.881Z,99345.61
2019-04-25T12:35:24.202Z,99330.28
2019-04-25T12:37:54.017Z,99327.14
2019-04-25T12:40:24.238Z,99321.02
2019-04-25T12:42:52.928Z,99313.23
2019-04-25T12:45:28.560Z,99307.60
2019-04-25T12:47:59.365Z,99310.51
2019-04-25T12:50:28.036Z,99301.68
2019-04-25T12:52:56.546Z,99300.05
2019-04-25T12:55:25.116Z,99295.01
2019-04-25T12:57:55.413Z,99286.48
2019-04-25T13:00:25.888Z,99276.30
2019-04-25T13:02:54.504Z,99266.36
2019-04-25T13:05:24.438Z,99267.13
2019-04-25T13:07:56.706Z,99259.08
2019-04-25T13:10:23.757Z,99260.20
2019-04-25T13:12:55.235Z,99255.39
2019-04-25T13:15:25.240Z,99255.77
2019-04-25T13:17:53.686Z,99251.69
2019-04-25T13:20:22.156Z,99247.23
2019-04-25T13:22:50.640Z,99250.16
2019-04-25T13:25:20.835Z,99247.20
2019-04-25T13:28:09.007Z,99247.27
2019-04-25T13:31:04.045Z,99252.03
2019-04-25T13:33:43.235Z,99250.11
2019-04-25T13:36:13.512Z,99247.78
2019-04-25T13:38:43.638Z,99245.49
2019-04-25T13:41:12.639Z,99228.73
2019-04-25T13:43:42.097Z,99212.83
2019-04-25T13:46:11.150Z,99216.27
2019-04-25T13:48:41.167Z,99199.48
2019-04-25T13:51:09.866Z,99199.81
2019-04-25T13:53:38.381Z,99197.88
2019-04-25T13:56:07.017Z,99197.30
2019-04-25T13:58:35.613Z,99199.88
2019-04-25T14:01:12.786Z,99193.16
2019-04-25T14:03:35.820Z,99184.59
2019-04-25T14:06:05.312Z,99186.75
2019-04-25T14:08:33.763Z,99180.08
2019-04-25T14:11:04.987Z,99182.80
2019-04-25T14:13:32.723Z,99173.55
2019-04-25T14:16:08.656Z,99168.28
2019-04-25T14:18:55.058Z,99152.87
2019-04-25T14:21:24.902Z,99141.95
2019-04-25T14:23:54.160Z,99137.06
2019-04-25T14:26:23.013Z,99139.50
2019-04-25T14:28:51.714Z,99147.25
2019-04-25T14:31:35.413Z,99136.59
2019-04-25T14:33:51.766Z,99138.27
2019-04-25T14:36:20.373Z,99131.64
2019-04-25T14:38:48.819Z,99133.02
2019-04-25T14:41:17.287Z,99130.25
2019-04-25T14:43:46.522Z,99128.14
2019-04-25T14:46:15.148Z,99132.81
2019-04-25T14:48:43.662Z,99134.73
2019-04-25T14:51:12.319Z,99115.13
2019-04-25T14:53:40.840Z,99114.80
2019-04-25T14:56:15.282Z,99113.17
2019-04-25T14:58:45.909Z,99098.46
2019-04-25T15:01:16.126Z,99098.59
2019-04-25T15:03:44.800Z,99102.25
2019-04-25T15:06:13.458Z,99088.56
2019-04-25T15:08:41.990Z,99090.58
2019-04-25T15:11:10.514Z,99099.59
2019-04-25T15:13:39.002Z,99095.64
2019-04-25T15:16:07.601Z,99088.00
2019-04-25T15:18:46.115Z,99090.62
2019-04-25T15:21:06.696Z,99094.37
2019-04-25T15:23:35.833Z,99098.34
2019-04-25T15:26:04.562Z,99095.28
2019-04-25T15:28:33.145Z,99100.36
2019-04-25T15:31:01.740Z,99111.55
2019-04-25T15:33:30.404Z,99107.79
2019-04-25T15:36:15.896Z,99113.15
2019-04-25T15:38:51.873Z,99117.07
2019-04-25T15:41:25.038Z,99112.33
2019-04-25T15:44:11.664Z,99111.48
2019-04-25T15:46:41.861Z,99106.28
2019-04-25T15:49:10.660Z,99106.44
2019-04-25T15:51:39.113Z,99093.73
2019-04-25T15:54:07.939Z,99097.34
2019-04-25T15:56:36.719Z,99100.63
2019-04-25T15:59:05.337Z,99098.16
2019-04-25T16:01:34.625Z,99110.01
2019-04-25T16:04:03.232Z,99111.73
2019-04-25T16:06:31.983Z,99114.77
2019-04-25T16:09:00.468Z,99119.41
2019-04-25T16:11:30.056Z,99122.50
2019-04-25T16:13:58.741Z,99129.47
2019-04-25T16:16:28.210Z,99126.95
2019-04-25T16:18:57.266Z,99128.47
2019-04-25T16:21:26.742Z,99131.34
2019-04-25T16:23:56.011Z,99128.66
2019-04-25T16:26:25.184Z,99135.80
2019-04-25T16:28:53.708Z,99132.11
2019-04-25T16:31:24.012Z,99133.31
2019-04-25T16:33:52.623Z,99140.73
2019-04-25T16:36:21.142Z,99151.22
2019-04-25T16:38:49.814Z,99159.57
2019-04-25T16:41:19.203Z,99161.66
2019-04-25T16:43:49.442Z,99165.38
2019-04-25T16:46:18.803Z,99173.91
2019-04-25T16:48:47.252Z,99181.50
2019-04-25T16:51:16.442Z,99186.60
2019-04-25T16:53:44.923Z,99193.50
2019-04-25T16:56:13.516Z,99206.73
2019-04-25T16:58:41.972Z,99207.72
2019-04-25T17:01:12.535Z,99218.20
2019-04-25T17:03:41.535Z,99232.81
2019-04-25T17:06:10.398Z,99228.31
2019-04-25T17:08:38.994Z,99231.03
2019-04-25T17:11:08.202Z,99240.36
2019-04-25T17:13:38.373Z,99240.18
2019-04-25T17:16:23.836Z,99256.56
2019-04-25T17:19:06.047Z,99259.78
2019-04-25T17:21:34.784Z,99268.99
2019-04-25T17:24:03.917Z,99275.66
2019-04-25T17:26:32.776Z,99275.66
2019-04-25T17:29:03.010Z,99294.37
2019-04-25T17:31:33.976Z,99283.88
2019-04-25T17:34:10.473Z,99284.25
2019-04-25T17:36:46.095Z,99303.48
2019-04-25T17:39:26.771Z,99298.17
2019-04-25T17:41:55.361Z,99309.22
2019-04-25T17:44:23.895Z,99321.87
2019-04-25T17:46:52.565Z,99323.08
2019-04-25T17:49:21.027Z,99333.41
2019-04-25T17:51:50.610Z,99324.41
2019-04-25T17:54:19.109Z,99337.87
2019-04-25T17:56:47.580Z,99349.02
2019-04-25T17:59:16.026Z,99351.95
2019-04-25T18:01:44.640Z,99350.58
2019-04-25T18:04:13.126Z,99362.06
2019-04-25T18:06:42.103Z,99374.19
2019-04-25T18:09:11.229Z,99380.23
2019-04-25T18:11:40.191Z,99386.39
2019-04-25T18:14:08.880Z,99383.39
2019-04-25T18:16:40.252Z,99386.23
2019-04-25T18:19:10.523Z,99378.44
2019-04-25T18:21:39.112Z,99382.92
2019-04-25T18:24:15.233Z,99386.11
2019-04-25T18:26:57.363Z,99381.30
2019-04-25T18:29:26.950Z,99393.89
2019-04-25T18:31:55.465Z,99407.22
2019-04-25T18:34:35.962Z,99406.13
2019-04-25T18:37:18.660Z,99413.23
2019-04-25T18:39:51.483Z,99414.80
2019-04-25T18:42:30.033Z,99436.46
2019-04-25T18:44:58.512Z,99444.75
2019-04-25T18:47:26.970Z,99451.80
2019-04-25T18:49:55.425Z,99451.08
2019-04-25T18:52:28.322Z,99464.00
2019-04-25T18:55:13.225Z,99468.71
2019-04-25T18:57:44.552Z,99474.47
2019-04-25T19:00:31.976Z,99486.34
2019-04-25T19:03:04.558Z,99488.53
2019-04-25T19:05:34.699Z,99490.70
2019-04-25T19:08:03.152Z,99500.35
2019-04-25T19:10:31.736Z,99498.14
2019-04-25T19:13:12.007Z,99510.47
2019-04-25T19:15:30.748Z,99514.22
2019-04-25T19:17:59.429Z,99516.88
2019-04-25T19:20:27.896Z,99515.75
2019-04-25T19:22:56.491Z,99525.54
2019-04-25T19:25:25.104Z,99532.67
2019-04-25T19:27:53.595Z,99536.39
2019-04-25T19:30:22.293Z,99527.31
2019-04-25T19:32:51.664Z,99529.71
2019-04-25T19:35:20.193Z,99537.29
2019-04-25T19:37:48.710Z,99536.87
2019-04-25T19:40:19.068Z,99528.41
2019-04-25T19:42:49.159Z,99529.94
2019-04-25T19:45:17.721Z,99546.67
2019-04-25T19:47:47.156Z,99559.17
2019-04-25T19:50:15.909Z,99558.33
2019-04-25T19:52:44.360Z,99555.70
2019-04-25T19:55:13.512Z,99550.40
2019-04-25T19:57:42.455Z,99553.60
2019-04-25T20:00:12.073Z,99561.16
2019-04-25T20:02:43.464Z,99570.26
2019-04-25T20:05:23.541Z,99579.08
2019-04-25T20:07:53.674Z,99582.73
2019-04-25T20:10:23.792Z,99580.70
2019-04-25T20:12:54.872Z,99589.08
2019-04-25T20:15:23.686Z,99589.14
2019-04-25T20:17:52.139Z,99589.81
2019-04-25T20:20:20.931Z,99596.70
2019-04-25T20:22:50.263Z,99588.98
2019-04-25T20:25:19.178Z,99576.61
2019-04-25T20:27:48.542Z,99585.14
2019-04-25T20:30:19.067Z,99592.94
2019-04-25T20:32:47.520Z,99598.48
2019-04-25T20:35:15.972Z,99599.82
2019-04-25T20:37:44.967Z,99608.62
2019-04-25T20:40:14.633Z,99611.59
2019-04-25T20:42:43.081Z,99607.97
2019-04-25T20:45:12.687Z,99616.53
2019-04-25T20:47:41.216Z,99625.03
2019-04-25T20:50:11.177Z,99624.78
2019-04-25T20:52:39.735Z,99617.56
2019-04-25T20:55:08.328Z,99622.56
2019-04-25T20:57:36.779Z,99630.20
2019-04-25T21:00:08.079Z,99628.66
2019-04-25T21:02:36.607Z,99620.64
2019-04-25T21:05:06.290Z,99625.34
2019-04-25T21:07:34.838Z,99650.31
2019-04-25T21:10:03.600Z,99635.34
2019-04-25T21:12:32.049Z,99614.86
2019-04-25T21:15:02.249Z,99617.97
2019-04-25T21:17:32.338Z,99618.61
2019-04-25T21:20:02.985Z,99626.61
2019-04-25T21:22:31.529Z,99654.97
2019-04-25T21:25:00.052Z,99652.77
2019-04-25T21:27:28.570Z,99659.10
2019-04-25T21:29:57.762Z,99645.23
2019-04-25T21:32:26.400Z,99630.80
2019-04-25T21:34:55.297Z,99633.38
2019-04-25T21:37:24.067Z,99624.33
2019-04-25T21:39:57.275Z,99615.28
2019-04-25T21:42:34.471Z,99624.63
2019-04-25T21:45:03.340Z,99613.98
2019-04-25T21:47:31.786Z,99604.64
2019-04-25T21:50:00.916Z,99605.88
2019-04-25T21:52:29.741Z,99605.02
2019-04-25T21:54:59.546Z,99600.33
2019-04-25T21:57:28.306Z,99596.88
2019-04-25T22:00:02.851Z,99601.48
2019-04-25T22:02:28.085Z,99609.23
2019-04-25T22:04:56.916Z,99601.16
2019-04-25T22:07:26.096Z,99608.00
2019-04-25T22:09:55.585Z,99603.06
2019-04-25T22:12:24.908Z,99603.97
2019-04-25T22:14:53.436Z,99601.31
2019-04-25T22:17:21.981Z,99609.32
2019-04-25T22:19:51.551Z,99611.99
2019-04-25T22:22:22.168Z,99612.61
2019-04-25T22:24:50.677Z,99607.64
2019-04-25T22:27:21.021Z,99593.78
2019-04-25T22:29:51.174Z,99593.39
2019-04-25T22:32:23.996Z,99593.44
2019-04-25T22:35:06.310Z,99584.86
2019-04-25T22:37:34.838Z,99574.50
2019-04-25T22:40:05.352Z,99577.91
2019-04-25T22:42:34.006Z,99585.65
2019-04-25T22:45:02.521Z,99597.84
2019-04-25T22:47:30.968Z,99595.17
2019-04-25T22:50:00.271Z,99598.97
2019-04-25T22:52:29.944Z,99625.92
2019-04-25T22:54:58.388Z,99616.16
2019-04-25T22:57:27.067Z,99618.09
2019-04-25T22:59:55.515Z,99617.80
2019-04-25T23:02:28.090Z,99609.02
2019-04-25T23:05:09.193Z,99612.72
2019-04-25T23:07:31.702Z,99608.23
2019-04-25T23:10:00.566Z,99613.84
2019-04-25T23:12:30.767Z,99603.99
2019-04-25T23:14:59.416Z,99603.70
2019-04-25T23:17:27.844Z,99602.97
2019-04-25T23:19:56.670Z,99588.27
2019-04-25T23:22:25.122Z,99584.99
2019-04-25T23:25:05.951Z,99598.16
2019-04-25T23:27:42.260Z,99607.80
2019-04-25T23:30:13.247Z,99626.87
2019-04-25T23:32:41.738Z,99638.20
2019-04-25T23:35:24.291Z,99651.42
2019-04-25T23:37:40.658Z,99647.94
2019-04-25T23:40:09.534Z,99658.11
2019-04-25T23:42:38.098Z,99682.83
2019-04-25T23:45:08.146Z,99700.82
2019-04-25T23:47:36.658Z,99699.09
2019-04-25T23:50:07.669Z,99688.22
2019-04-25T23:52:37.365Z,99672.10
2019-04-25T23:55:06.953Z,99661.42
2019-04-25T23:57:36.629Z,99653.83
